createdAt,value
2018-09-01T00:00:02.013Z,99.90
2018-09-01T00:02:29.091Z,99.90
2018-09-01T00:04:56.059Z,99.90
2018-09-01T00:07:23.034Z,99.90
2018-09-01T00:09:50.076Z,99.90
2018-09-01T00:12:17.062Z,99.90
2018-09-01T00:14:44.048Z,99.90
2018-09-01T00:17:27.262Z,99.90
2018-09-01T00:19:54.312Z,99.90
2018-09-01T00:22:21.339Z,99.90
2018-09-01T00:24:48.331Z,99.90
2018-09-01T00:27:15.325Z,99.90
2018-09-01T00:29:42.320Z,99.90
2018-09-01T00:32:09.369Z,99.90
2018-09-01T00:34:36.359Z,99.90
2018-09-01T00:37:03.346Z,99.90
2018-09-01T00:39:30.688Z,99.90
2018-09-01T00:41:57.673Z,99.90
2018-09-01T00:44:24.686Z,99.90
2018-09-01T00:46:51.673Z,99.90
2018-09-01T00:49:18.692Z,99.90
2018-09-01T00:51:45.768Z,99.90
2018-09-01T00:54:12.789Z,99.90
2018-09-01T00:56:39.779Z,99.90
2018-09-01T00:59:06.780Z,99.90
2018-09-01T01:01:33.831Z,99.90
2018-09-01T01:04:00.856Z,99.90
2018-09-01T01:06:27.842Z,99.90
2018-09-01T01:08:54.865Z,99.90
2018-09-01T01:11:21.863Z,99.90
2018-09-01T01:13:48.870Z,99.90
2018-09-01T01:16:16.128Z,99.90
2018-09-01T01:18:43.248Z,99.90
2018-09-01T01:21:10.276Z,99.90
2018-09-01T01:23:37.300Z,99.90
2018-09-01T01:26:04.378Z,99.90
2018-09-01T01:28:31.346Z,99.90
2018-09-01T01:30:58.504Z,99.90
2018-09-01T01:33:25.491Z,99.90
2018-09-01T01:35:52.468Z,99.90
2018-09-01T01:38:19.484Z,99.90
2018-09-01T01:40:47.037Z,99.90
2018-09-01T01:43:14.089Z,99.90
2018-09-01T01:45:41.098Z,99.90
2018-09-01T01:48:08.067Z,99.90
2018-09-01T01:50:35.081Z,99.90
2018-09-01T01:53:02.164Z,99.90
2018-09-01T01:55:29.163Z,99.90
2018-09-01T01:57:56.138Z,99.90
2018-09-01T02:00:23.129Z,99.90
2018-09-01T02:02:50.128Z,99.90
2018-09-01T02:05:19.100Z,99.90
2018-09-01T02:07:47.663Z,99.90
2018-09-01T02:10:14.725Z,99.90
2018-09-01T02:12:42.054Z,99.90
2018-09-01T02:15:09.072Z,99.90
2018-09-01T02:17:36.051Z,99.90
2018-09-01T02:20:03.191Z,99.90
2018-09-01T02:22:30.672Z,99.90
2018-09-01T02:24:57.662Z,99.90
2018-09-01T02:27:24.642Z,99.90
2018-09-01T02:29:51.688Z,99.90
2018-09-01T02:32:18.657Z,99.90
2018-09-01T02:34:45.648Z,99.90
2018-09-01T02:37:12.767Z,99.90
2018-09-01T02:39:39.748Z,99.90
2018-09-01T02:42:07.482Z,99.90
2018-09-01T02:44:34.450Z,99.90
2018-09-01T02:47:01.491Z,99.90
2018-09-01T02:49:28.468Z,99.90
2018-09-01T02:51:55.477Z,99.90
2018-09-01T02:54:22.467Z,99.90
2018-09-01T02:56:49.459Z,99.90
2018-09-01T02:59:16.452Z,99.90
2018-09-01T03:01:43.478Z,99.90
2018-09-01T03:04:10.494Z,99.90
2018-09-01T03:06:49.795Z,99.90
2018-09-01T03:09:16.830Z,99.90
2018-09-01T03:11:43.830Z,99.90
2018-09-01T03:14:10.828Z,99.90
2018-09-01T03:16:37.869Z,99.90
2018-09-01T03:19:05.026Z,99.90
2018-09-01T03:21:32.028Z,99.90
2018-09-01T03:23:59.007Z,99.90
2018-09-01T03:26:26.104Z,99.90
2018-09-01T03:28:53.106Z,99.90
2018-09-01T03:31:20.139Z,99.90
2018-09-01T03:33:47.087Z,99.90
2018-09-01T03:36:14.085Z,99.90
2018-09-01T03:38:41.090Z,99.90
2018-09-01T03:41:08.052Z,99.90
2018-09-01T03:43:35.198Z,99.90
2018-09-01T03:46:02.168Z,99.90
2018-09-01T03:48:29.131Z,99.90
2018-09-01T03:50:56.656Z,99.90
2018-09-01T03:53:23.637Z,99.90
2018-09-01T03:55:50.657Z,99.90
2018-09-01T03:58:17.634Z,99.90
2018-09-01T04:00:44.626Z,99.90
2018-09-01T04:03:11.667Z,99.90
2018-09-01T04:05:38.676Z,99.90
2018-09-01T04:08:05.655Z,99.90
2018-09-01T04:10:32.632Z,99.90
2018-09-01T04:12:59.639Z,99.90
2018-09-01T04:15:26.634Z,99.90
2018-09-01T04:17:53.694Z,99.90
2018-09-01T04:20:20.676Z,99.90
2018-09-01T04:22:47.662Z,99.90
2018-09-01T04:25:14.762Z,99.90
2018-09-01T04:27:41.762Z,99.90
2018-09-01T04:30:08.742Z,99.90
2018-09-01T04:32:35.740Z,99.90
2018-09-01T04:35:02.745Z,99.90
2018-09-01T04:37:29.783Z,99.90
2018-09-01T04:39:56.754Z,99.90
2018-09-01T04:42:23.764Z,99.90
2018-09-01T04:44:51.118Z,99.90
2018-09-01T04:47:18.111Z,99.90
2018-09-01T04:49:45.104Z,99.90
2018-09-01T04:52:12.087Z,99.90
2018-09-01T04:54:39.085Z,99.90
2018-09-01T04:57:06.080Z,99.90
2018-09-01T04:59:33.055Z,99.90
2018-09-01T05:02:00.018Z,99.90
2018-09-01T05:04:27.023Z,99.90
2018-09-01T05:06:54.038Z,99.90
2018-09-01T05:09:21.003Z,99.90
2018-09-01T05:11:47.999Z,99.90
2018-09-01T05:14:14.985Z,99.90
2018-09-01T05:16:41.975Z,99.90
2018-09-01T05:19:08.998Z,99.90
2018-09-01T05:21:35.986Z,99.90
2018-09-01T05:24:02.993Z,99.90
2018-09-01T05:26:29.927Z,99.90
2018-09-01T05:28:56.890Z,99.90
2018-09-01T05:31:23.857Z,99.90
2018-09-01T05:33:50.843Z,99.90
2018-09-01T05:36:17.810Z,99.90
2018-09-01T05:38:44.768Z,99.90
2018-09-01T05:41:11.731Z,99.90
2018-09-01T05:43:38.729Z,99.90
2018-09-01T05:46:06.235Z,99.90
2018-09-01T05:48:33.209Z,99.90
2018-09-01T05:51:00.183Z,99.90
2018-09-01T05:53:27.159Z,99.90
2018-09-01T05:55:54.207Z,99.90
2018-09-01T05:58:21.185Z,99.90
2018-09-01T06:00:49.343Z,99.90
2018-09-01T06:03:16.836Z,99.90
2018-09-01T06:05:44.276Z,99.90
2018-09-01T06:08:11.246Z,99.90
2018-09-01T06:10:38.291Z,99.90
2018-09-01T06:13:05.318Z,99.90
2018-09-01T06:15:32.289Z,99.90
2018-09-01T06:17:59.317Z,99.90
2018-09-01T06:20:26.254Z,99.90
2018-09-01T06:22:53.242Z,99.90
2018-09-01T06:25:20.227Z,99.90
2018-09-01T06:27:49.355Z,99.90
2018-09-01T06:30:19.886Z,99.90
2018-09-01T06:32:46.853Z,99.90
2018-09-01T06:35:13.826Z,99.90
2018-09-01T06:37:40.819Z,99.90
2018-09-01T06:40:07.754Z,99.90
2018-09-01T06:42:34.883Z,99.90
2018-09-01T06:45:01.916Z,99.90
2018-09-01T06:47:29.685Z,99.90
2018-09-01T06:49:56.648Z,99.90
2018-09-01T06:52:23.614Z,99.90
2018-09-01T06:54:50.639Z,99.90
2018-09-01T06:57:17.612Z,99.90
2018-09-01T06:59:44.596Z,99.90
2018-09-01T07:02:11.602Z,99.90
2018-09-01T07:04:38.601Z,99.90
2018-09-01T07:07:05.572Z,99.90
2018-09-01T07:09:32.573Z,99.90
2018-09-01T07:11:59.660Z,99.90
2018-09-01T07:14:27.523Z,99.90
2018-09-01T07:16:54.515Z,99.90
2018-09-01T07:19:21.471Z,99.90
2018-09-01T07:21:48.442Z,99.90
2018-09-01T07:24:15.454Z,99.90
2018-09-01T07:26:42.455Z,99.90
2018-09-01T07:29:09.431Z,99.90
2018-09-01T07:31:36.756Z,99.90
2018-09-01T07:34:03.401Z,99.90
2018-09-01T07:36:30.465Z,99.90
2018-09-01T07:38:57.447Z,99.90
2018-09-01T07:41:24.415Z,99.90
2018-09-01T07:43:51.387Z,99.90
2018-09-01T07:46:18.387Z,99.90
2018-09-01T07:48:45.523Z,99.90
2018-09-01T07:51:12.556Z,99.90
2018-09-01T07:53:39.574Z,99.90
2018-09-01T07:56:06.784Z,99.90
2018-09-01T07:58:33.723Z,99.90
2018-09-01T08:01:00.738Z,99.90
2018-09-01T08:03:27.728Z,99.90
2018-09-01T08:05:54.715Z,99.90
2018-09-01T08:08:21.711Z,99.90
2018-09-01T08:10:49.456Z,99.90
2018-09-01T08:13:16.523Z,99.90
2018-09-01T08:15:43.563Z,99.90
2018-09-01T08:18:10.930Z,99.90
2018-09-01T08:20:38.023Z,99.90
2018-09-01T08:23:05.027Z,99.90
2018-09-01T08:25:31.998Z,99.90
2018-09-01T08:27:58.961Z,99.90
2018-09-01T08:30:25.969Z,99.90
2018-09-01T08:32:52.967Z,99.90
2018-09-01T08:35:19.986Z,99.90
2018-09-01T08:37:46.995Z,99.90
2018-09-01T08:40:14.026Z,99.90
2018-09-01T08:42:40.974Z,99.90
2018-09-01T08:45:07.989Z,99.90
2018-09-01T08:47:34.965Z,99.90
2018-09-01T08:50:02.312Z,99.90
2018-09-01T08:52:29.293Z,99.90
2018-09-01T08:54:56.374Z,99.90
2018-09-01T08:57:23.330Z,99.90
2018-09-01T08:59:50.302Z,99.90
2018-09-01T09:02:17.349Z,99.90
2018-09-01T09:04:44.299Z,99.90
2018-09-01T09:07:11.270Z,99.90
2018-09-01T09:09:38.234Z,99.90
2018-09-01T09:12:05.201Z,99.90
2018-09-01T09:14:32.194Z,99.90
2018-09-01T09:16:59.146Z,99.90
2018-09-01T09:19:26.199Z,99.90
2018-09-01T09:21:53.203Z,99.90
2018-09-01T09:24:20.154Z,99.90
2018-09-01T09:26:47.119Z,99.90
2018-09-01T09:29:14.103Z,99.90
2018-09-01T09:31:41.076Z,99.90
2018-09-01T09:34:08.062Z,99.90
2018-09-01T09:36:35.015Z,99.90
2018-09-01T09:39:02.966Z,99.90
2018-09-01T09:41:29.927Z,99.90
2018-09-01T09:43:56.902Z,99.90
2018-09-01T09:46:23.851Z,99.90
2018-09-01T09:48:50.831Z,99.90
2018-09-01T09:51:17.987Z,99.90
2018-09-01T09:53:45.066Z,99.90
2018-09-01T09:56:12.006Z,99.90
2018-09-01T09:58:38.998Z,99.90
2018-09-01T10:01:25.566Z,99.90
2018-09-01T10:03:52.633Z,96.90
2018-09-01T10:06:19.664Z,98.90
2018-09-01T10:08:46.705Z,99.90
2018-09-01T10:11:13.695Z,99.90
2018-09-01T10:13:40.650Z,99.90
2018-09-01T10:16:10.152Z,99.90
2018-09-01T10:18:38.248Z,97.40
2018-09-01T10:21:05.235Z,97.20
2018-09-01T10:23:32.191Z,95.30
2018-09-01T10:25:59.231Z,94.50
2018-09-01T10:28:26.183Z,94.20
2018-09-01T10:30:53.164Z,95.90
2018-09-01T10:33:20.381Z,93.50
2018-09-01T10:35:47.351Z,93.20
2018-09-01T10:38:14.298Z,92.20
2018-09-01T10:40:41.312Z,93.00
2018-09-01T10:43:08.295Z,90.40
2018-09-01T10:45:35.239Z,84.10
2018-09-01T10:48:02.361Z,80.20
2018-09-01T10:50:29.262Z,76.80
2018-09-01T10:52:56.503Z,75.40
2018-09-01T10:55:23.483Z,75.30
2018-09-01T10:57:50.434Z,73.40
2018-09-01T11:00:19.223Z,72.30
2018-09-01T11:02:47.210Z,75.40
2018-09-01T11:05:14.209Z,71.80
2018-09-01T11:07:41.131Z,73.20
2018-09-01T11:10:08.094Z,71.10
2018-09-01T11:12:35.067Z,71.00
2018-09-01T11:15:02.031Z,71.20
2018-09-01T11:17:29.070Z,71.10
2018-09-01T11:19:56.033Z,74.50
2018-09-01T11:22:23.007Z,76.10
2018-09-01T11:24:51.738Z,74.80
2018-09-01T11:27:18.581Z,73.90
2018-09-01T11:29:45.525Z,74.30
2018-09-01T11:32:12.547Z,71.80
2018-09-01T11:34:39.544Z,71.10
2018-09-01T11:37:06.507Z,69.60
2018-09-01T11:39:33.501Z,71.30
2018-09-01T11:42:00.468Z,72.00
2018-09-01T11:44:27.450Z,72.60
2018-09-01T11:46:54.434Z,72.30
2018-09-01T11:49:21.398Z,72.50
2018-09-01T11:51:48.397Z,73.30
2018-09-01T11:54:15.526Z,71.20
2018-09-01T11:56:42.535Z,72.60
2018-09-01T11:59:09.481Z,74.50
2018-09-01T12:01:36.473Z,75.60
2018-09-01T12:04:03.501Z,74.10
2018-09-01T12:06:30.486Z,75.20
2018-09-01T12:08:57.575Z,75.40
2018-09-01T12:11:24.426Z,76.70
2018-09-01T12:13:51.463Z,75.10
2018-09-01T12:16:18.416Z,74.70
2018-09-01T12:18:45.415Z,76.10
2018-09-01T12:21:12.397Z,73.40
2018-09-01T12:23:39.371Z,73.40
2018-09-01T12:26:06.354Z,73.50
2018-09-01T12:28:33.365Z,73.70
2018-09-01T12:31:00.334Z,76.20
2018-09-01T12:33:27.296Z,76.70
2018-09-01T12:35:54.307Z,74.50
2018-09-01T12:38:21.293Z,74.10
2018-09-01T12:40:48.311Z,77.10
2018-09-01T12:43:15.277Z,76.40
2018-09-01T12:45:42.294Z,74.30
2018-09-01T12:48:09.274Z,74.80
2018-09-01T12:50:36.245Z,75.00
2018-09-01T12:53:03.321Z,74.10
2018-09-01T12:55:30.645Z,75.80
2018-09-01T12:57:57.761Z,75.60
2018-09-01T13:00:24.828Z,73.60
2018-09-01T13:02:51.839Z,74.70
2018-09-01T13:05:18.807Z,75.10
2018-09-01T13:07:45.854Z,74.40
2018-09-01T13:10:12.835Z,74.40
2018-09-01T13:12:39.867Z,71.90
2018-09-01T13:15:06.859Z,72.60
2018-09-01T13:17:33.825Z,73.40
2018-09-01T13:20:00.799Z,73.90
2018-09-01T13:22:27.815Z,73.00
2018-09-01T13:24:54.774Z,71.90
2018-09-01T13:27:21.742Z,72.30
2018-09-01T13:29:48.719Z,73.80
2018-09-01T13:32:15.660Z,72.60
2018-09-01T13:34:42.629Z,74.60
2018-09-01T13:37:09.702Z,75.70
2018-09-01T13:39:36.732Z,71.70
2018-09-01T13:42:03.680Z,73.60
2018-09-01T13:44:30.716Z,71.90
2018-09-01T13:46:57.715Z,73.20
2018-09-01T13:49:24.667Z,73.20
2018-09-01T13:51:51.650Z,72.50
2018-09-01T13:54:18.680Z,72.80
2018-09-01T13:56:46.140Z,73.00
2018-09-01T13:59:13.215Z,73.60
2018-09-01T14:01:40.182Z,73.00
2018-09-01T14:04:07.211Z,72.80
2018-09-01T14:06:34.178Z,72.30
2018-09-01T14:09:01.247Z,70.80
2018-09-01T14:11:28.199Z,73.00
2018-09-01T14:13:55.176Z,72.90
2018-09-01T14:16:22.131Z,71.30
2018-09-01T14:18:49.113Z,68.10
2018-09-01T14:21:16.096Z,71.00
2018-09-01T14:23:43.058Z,72.00
2018-09-01T14:26:10.038Z,70.80
2018-09-01T14:28:37.039Z,70.70
2018-09-01T14:31:04.032Z,71.80
2018-09-01T14:33:31.029Z,71.10
2018-09-01T14:35:58.013Z,71.40
2018-09-01T14:38:25.853Z,68.30
2018-09-01T14:40:52.746Z,69.90
2018-09-01T14:43:19.737Z,70.80
2018-09-01T14:45:46.705Z,72.70
2018-09-01T14:48:13.730Z,71.70
2018-09-01T14:50:40.639Z,71.00
2018-09-01T14:53:07.621Z,70.90
2018-09-01T14:55:34.558Z,70.50
2018-09-01T14:58:01.823Z,70.30
2018-09-01T15:00:28.779Z,69.60
2018-09-01T15:02:55.736Z,69.60
2018-09-01T15:05:22.710Z,68.30
2018-09-01T15:07:49.690Z,69.80
2018-09-01T15:10:16.664Z,68.70
2018-09-01T15:12:43.856Z,71.10
2018-09-01T15:15:10.829Z,70.00
2018-09-01T15:17:37.792Z,69.80
2018-09-01T15:20:04.861Z,70.50
2018-09-01T15:22:31.851Z,71.30
2018-09-01T15:24:58.993Z,71.20
2018-09-01T15:27:25.850Z,71.30
2018-09-01T15:29:52.821Z,71.70
2018-09-01T15:32:19.774Z,72.50
2018-09-01T15:34:46.763Z,71.40
2018-09-01T15:37:13.721Z,71.80
2018-09-01T15:39:40.764Z,73.40
2018-09-01T15:42:07.807Z,71.90
2018-09-01T15:44:34.784Z,70.70
2018-09-01T15:47:01.732Z,71.60
2018-09-01T15:49:28.710Z,71.60
2018-09-01T15:51:55.668Z,72.20
2018-09-01T15:54:22.621Z,72.30
2018-09-01T15:56:49.587Z,71.90
2018-09-01T15:59:16.902Z,71.30
2018-09-01T16:01:43.903Z,72.50
2018-09-01T16:04:10.864Z,72.50
2018-09-01T16:06:37.846Z,73.00
2018-09-01T16:09:05.519Z,72.10
2018-09-01T16:11:32.545Z,71.90
2018-09-01T16:13:59.463Z,71.00
2018-09-01T16:16:26.423Z,72.10
2018-09-01T16:18:53.395Z,73.90
2018-09-01T16:21:20.358Z,75.30
2018-09-01T16:23:47.336Z,75.00
2018-09-01T16:26:14.371Z,73.70
2018-09-01T16:28:41.330Z,74.30
2018-09-01T16:31:08.259Z,74.50
2018-09-01T16:33:35.276Z,74.40
2018-09-01T16:36:02.230Z,75.40
2018-09-01T16:38:33.321Z,76.50
2018-09-01T16:41:00.298Z,75.10
2018-09-01T16:43:27.270Z,77.70
2018-09-01T16:45:54.255Z,77.50
2018-09-01T16:48:21.242Z,74.40
2018-09-01T16:50:48.198Z,77.50
2018-09-01T16:53:15.159Z,76.40
2018-09-01T16:55:42.123Z,77.80
2018-09-01T16:58:09.094Z,74.70
2018-09-01T17:00:36.389Z,77.40
2018-09-01T17:03:03.314Z,76.60
2018-09-01T17:05:30.287Z,75.60
2018-09-01T17:07:57.238Z,75.70
2018-09-01T17:10:24.234Z,76.40
2018-09-01T17:12:51.175Z,77.30
2018-09-01T17:15:18.130Z,78.00
2018-09-01T17:17:45.173Z,77.80
2018-09-01T17:20:12.078Z,78.40
2018-09-01T17:22:39.060Z,77.40
2018-09-01T17:25:06.045Z,78.10
2018-09-01T17:27:33.014Z,78.50
2018-09-01T17:29:59.985Z,79.90
2018-09-01T17:32:26.966Z,79.30
2018-09-01T17:34:53.932Z,80.40
2018-09-01T17:37:20.890Z,80.20
2018-09-01T17:39:47.875Z,80.00
2018-09-01T17:42:14.885Z,80.50
2018-09-01T17:44:41.884Z,81.50
2018-09-01T17:47:09.391Z,81.40
2018-09-01T17:49:36.605Z,81.20
2018-09-01T17:52:03.555Z,81.10
2018-09-01T17:54:30.658Z,82.30
2018-09-01T17:57:00.746Z,82.10
2018-09-01T17:59:27.779Z,83.30
2018-09-01T18:01:55.287Z,82.90
2018-09-01T18:04:22.568Z,83.00
2018-09-01T18:06:52.047Z,82.60
2018-09-01T18:09:19.034Z,83.10
2018-09-01T18:11:46.012Z,83.80
2018-09-01T18:14:12.978Z,83.70
2018-09-01T18:16:39.982Z,83.70
2018-09-01T18:19:06.922Z,83.80
2018-09-01T18:21:33.875Z,84.00
2018-09-01T18:24:00.886Z,84.90
2018-09-01T18:26:27.866Z,85.00
2018-09-01T18:28:54.834Z,86.20
2018-09-01T18:31:21.878Z,86.00
2018-09-01T18:33:48.871Z,86.10
2018-09-01T18:36:15.839Z,86.40
2018-09-01T18:38:42.894Z,87.50
2018-09-01T18:41:09.923Z,88.00
2018-09-01T18:43:36.908Z,87.70
2018-09-01T18:46:03.895Z,88.30
2018-09-01T18:48:30.907Z,88.30
2018-09-01T18:50:58.106Z,88.40
2018-09-01T18:53:25.149Z,89.10
2018-09-01T18:55:52.107Z,88.80
2018-09-01T18:58:19.213Z,89.70
2018-09-01T19:00:46.230Z,89.40
2018-09-01T19:03:13.974Z,90.40
2018-09-01T19:05:40.996Z,90.40
2018-09-01T19:08:08.154Z,91.10
2018-09-01T19:10:35.287Z,91.10
2018-09-01T19:13:02.284Z,90.90
2018-09-01T19:15:29.279Z,91.30
2018-09-01T19:17:56.358Z,90.70
2018-09-01T19:20:23.331Z,91.40
2018-09-01T19:22:50.341Z,91.70
2018-09-01T19:25:17.515Z,91.90
2018-09-01T19:27:44.539Z,91.50
2018-09-01T19:30:13.006Z,91.60
2018-09-01T19:32:40.042Z,91.70
2018-09-01T19:35:07.020Z,91.90
2018-09-01T19:37:34.031Z,92.80
2018-09-01T19:40:01.030Z,92.80
2018-09-01T19:42:28.034Z,93.10
2018-09-01T19:44:55.194Z,93.10
2018-09-01T19:47:22.044Z,93.10
2018-09-01T19:49:49.038Z,93.10
2018-09-01T19:52:16.218Z,92.80
2018-09-01T19:54:43.199Z,92.80
2018-09-01T19:57:10.284Z,92.60
2018-09-01T19:59:37.278Z,92.60
2018-09-01T20:02:04.280Z,92.80
2018-09-01T20:04:32.286Z,93.20
2018-09-01T20:06:59.708Z,93.30
2018-09-01T20:09:26.440Z,93.10
2018-09-01T20:11:53.459Z,93.50
2018-09-01T20:14:21.050Z,93.50
2018-09-01T20:16:49.202Z,94.10
2018-09-01T20:19:16.204Z,94.00
2018-09-01T20:21:43.208Z,94.30
2018-09-01T20:24:10.432Z,94.50
2018-09-01T20:26:37.469Z,94.80
2018-09-01T20:29:04.662Z,95.20
2018-09-01T20:31:31.699Z,95.60
2018-09-01T20:33:58.743Z,95.80
2018-09-01T20:36:25.801Z,95.70
2018-09-01T20:38:52.872Z,96.30
2018-09-01T20:41:19.950Z,96.70
2018-09-01T20:43:47.003Z,96.60
2018-09-01T20:46:14.017Z,97.10
2018-09-01T20:48:41.047Z,97.20
2018-09-01T20:51:08.107Z,97.10
2018-09-01T20:53:35.654Z,97.80
2018-09-01T20:56:02.595Z,97.90
2018-09-01T20:58:29.646Z,97.70
2018-09-01T21:00:56.820Z,98.00
2018-09-01T21:03:23.832Z,97.90
2018-09-01T21:05:51.492Z,98.60
2018-09-01T21:08:19.203Z,99.60
2018-09-01T21:10:46.224Z,99.90
2018-09-01T21:13:13.781Z,99.90
2018-09-01T21:15:40.763Z,99.90
2018-09-01T21:18:07.760Z,99.90
2018-09-01T21:20:34.830Z,99.90
2018-09-01T21:23:01.811Z,99.90
2018-09-01T21:25:29.470Z,99.90
2018-09-01T21:27:56.546Z,99.90
2018-09-01T21:30:23.484Z,99.90
2018-09-01T21:32:51.908Z,99.90
2018-09-01T21:35:18.972Z,99.90
2018-09-01T21:37:45.960Z,99.90
2018-09-01T21:40:13.076Z,99.90
2018-09-01T21:42:40.112Z,99.90
2018-09-01T21:45:07.179Z,99.90
2018-09-01T21:47:34.253Z,99.90
2018-09-01T21:50:01.386Z,99.90
2018-09-01T21:52:28.404Z,99.90
2018-09-01T21:54:55.359Z,99.90
2018-09-01T21:57:22.289Z,99.90
2018-09-01T21:59:49.465Z,99.90
2018-09-01T22:02:22.343Z,99.90
2018-09-01T22:04:55.172Z,99.90
2018-09-01T22:07:22.523Z,99.90
2018-09-01T22:09:50.713Z,99.90
2018-09-01T22:12:18.260Z,99.90
2018-09-01T22:14:45.263Z,99.90
2018-09-01T22:17:12.293Z,99.90
2018-09-01T22:19:39.359Z,99.90
2018-09-01T22:22:06.412Z,99.90
2018-09-01T22:24:33.414Z,99.90
2018-09-01T22:27:00.426Z,99.90
2018-09-01T22:29:27.451Z,99.90
2018-09-01T22:31:54.478Z,99.90
2018-09-01T22:34:21.515Z,99.90
2018-09-01T22:36:48.505Z,99.90
2018-09-01T22:39:15.544Z,99.90
2018-09-01T22:41:42.563Z,99.90
2018-09-01T22:44:09.584Z,99.90
2018-09-01T22:46:36.571Z,99.90
2018-09-01T22:49:03.625Z,99.90
2018-09-01T22:51:30.638Z,99.90
2018-09-01T22:53:57.629Z,99.90
2018-09-01T22:56:24.658Z,99.90
2018-09-01T22:58:51.667Z,99.90
2018-09-01T23:01:18.651Z,99.90
2018-09-01T23:03:45.680Z,99.90
2018-09-01T23:06:12.685Z,99.90
2018-09-01T23:08:40.223Z,99.90
2018-09-01T23:11:07.283Z,99.90
2018-09-01T23:13:34.336Z,99.90
2018-09-01T23:16:01.334Z,99.90
2018-09-01T23:18:28.398Z,99.90
2018-09-01T23:20:55.415Z,99.90
2018-09-01T23:23:22.402Z,99.90
2018-09-01T23:25:49.447Z,99.90
2018-09-01T23:28:16.438Z,99.90
2018-09-01T23:30:43.422Z,99.90
2018-09-01T23:33:10.440Z,99.90
2018-09-01T23:35:37.414Z,99.90
2018-09-01T23:38:04.411Z,99.90
2018-09-01T23:40:31.428Z,99.90
2018-09-01T23:42:58.439Z,99.90
2018-09-01T23:45:25.398Z,99.90
2018-09-01T23:47:52.387Z,99.90
2018-09-01T23:50:19.346Z,99.90
2018-09-01T23:52:46.343Z,99.90
2018-09-01T23:55:13.399Z,99.90
2018-09-01T23:57:40.316Z,99.90
